sensor_id;sensor_type;location;lat;lon;timestamp;temperature;humidity
72206;DHT22;60111;48.286;7.812;2024-02-23T00:00:52;7.10;72.80
72206;DHT22;60111;48.286;7.812;2024-02-23T00:03:25;7.20;72.10
72206;DHT22;60111;48.286;7.812;2024-02-23T00:05:58;7.10;72.60
72206;DHT22;60111;48.286;7.812;2024-02-23T00:08:31;7.10;73.40
72206;DHT22;60111;48.286;7.812;2024-02-23T00:11:04;7.00;74.30
72206;DHT22;60111;48.286;7.812;2024-02-23T00:13:37;7.00;74.40
72206;DHT22;60111;48.286;7.812;2024-02-23T00:16:10;7.00;75.00
72206;DHT22;60111;48.286;7.812;2024-02-23T00:18:43;7.00;75.30
72206;DHT22;60111;48.286;7.812;2024-02-23T00:21:15;6.80;76.10
72206;DHT22;60111;48.286;7.812;2024-02-23T00:23:48;6.80;75.80
72206;DHT22;60111;48.286;7.812;2024-02-23T00:26:20;6.90;75.10
72206;DHT22;60111;48.286;7.812;2024-02-23T00:28:53;7.00;74.30
72206;DHT22;60111;48.286;7.812;2024-02-23T00:31:25;7.00;73.90
72206;DHT22;60111;48.286;7.812;2024-02-23T00:33:58;7.10;72.30
72206;DHT22;60111;48.286;7.812;2024-02-23T00:36:30;7.20;71.90
72206;DHT22;60111;48.286;7.812;2024-02-23T00:39:03;7.20;71.30
72206;DHT22;60111;48.286;7.812;2024-02-23T00:41:36;7.20;71.30
72206;DHT22;60111;48.286;7.812;2024-02-23T00:44:09;7.30;70.90
72206;DHT22;60111;48.286;7.812;2024-02-23T00:46:42;7.20;70.00
72206;DHT22;60111;48.286;7.812;2024-02-23T00:49:14;7.30;68.60
72206;DHT22;60111;48.286;7.812;2024-02-23T00:51:47;7.30;68.50
72206;DHT22;60111;48.286;7.812;2024-02-23T00:54:19;7.30;68.80
72206;DHT22;60111;48.286;7.812;2024-02-23T00:56:52;7.20;68.60
72206;DHT22;60111;48.286;7.812;2024-02-23T00:59:25;7.20;68.50
72206;DHT22;60111;48.286;7.812;2024-02-23T01:01:57;7.20;68.00
72206;DHT22;60111;48.286;7.812;2024-02-23T01:04:30;7.30;68.10
72206;DHT22;60111;48.286;7.812;2024-02-23T01:07:03;7.20;68.70
72206;DHT22;60111;48.286;7.812;2024-02-23T01:09:35;7.20;69.00
72206;DHT22;60111;48.286;7.812;2024-02-23T01:12:08;7.20;69.70
72206;DHT22;60111;48.286;7.812;2024-02-23T01:14:41;7.20;70.30
72206;DHT22;60111;48.286;7.812;2024-02-23T01:17:14;7.10;70.40
72206;DHT22;60111;48.286;7.812;2024-02-23T01:19:47;7.10;71.00
72206;DHT22;60111;48.286;7.812;2024-02-23T01:22:19;7.10;71.00
72206;DHT22;60111;48.286;7.812;2024-02-23T01:24:52;7.00;70.90
72206;DHT22;60111;48.286;7.812;2024-02-23T01:27:25;7.00;70.90
72206;DHT22;60111;48.286;7.812;2024-02-23T01:29:58;7.00;70.80
72206;DHT22;60111;48.286;7.812;2024-02-23T01:32:33;7.00;70.50
72206;DHT22;60111;48.286;7.812;2024-02-23T01:35:08;7.00;69.80
72206;DHT22;60111;48.286;7.812;2024-02-23T01:37:41;7.00;69.10
72206;DHT22;60111;48.286;7.812;2024-02-23T01:40:13;7.00;69.60
72206;DHT22;60111;48.286;7.812;2024-02-23T01:42:46;7.00;69.50
72206;DHT22;60111;48.286;7.812;2024-02-23T01:45:18;7.00;69.20
72206;DHT22;60111;48.286;7.812;2024-02-23T01:47:51;6.90;69.40
72206;DHT22;60111;48.286;7.812;2024-02-23T01:50:25;6.90;69.30
72206;DHT22;60111;48.286;7.812;2024-02-23T01:53:00;6.90;69.30
72206;DHT22;60111;48.286;7.812;2024-02-23T01:55:40;6.90;70.00
72206;DHT22;60111;48.286;7.812;2024-02-23T01:58:15;6.90;70.00
72206;DHT22;60111;48.286;7.812;2024-02-23T02:00:48;6.80;70.60
72206;DHT22;60111;48.286;7.812;2024-02-23T02:03:20;6.70;70.90
72206;DHT22;60111;48.286;7.812;2024-02-23T02:05:54;6.70;71.70
72206;DHT22;60111;48.286;7.812;2024-02-23T02:08:28;6.60;73.30
72206;DHT22;60111;48.286;7.812;2024-02-23T02:11:01;6.50;74.10
72206;DHT22;60111;48.286;7.812;2024-02-23T02:13:34;6.50;75.00
72206;DHT22;60111;48.286;7.812;2024-02-23T02:16:07;6.50;75.60
72206;DHT22;60111;48.286;7.812;2024-02-23T02:18:41;6.40;75.90
72206;DHT22;60111;48.286;7.812;2024-02-23T02:21:13;6.30;77.10
72206;DHT22;60111;48.286;7.812;2024-02-23T02:23:46;6.30;77.70
72206;DHT22;60111;48.286;7.812;2024-02-23T02:26:18;6.30;78.50
72206;DHT22;60111;48.286;7.812;2024-02-23T02:28:51;6.40;78.40
72206;DHT22;60111;48.286;7.812;2024-02-23T02:31:24;6.40;78.70
72206;DHT22;60111;48.286;7.812;2024-02-23T02:33:56;6.30;78.90
72206;DHT22;60111;48.286;7.812;2024-02-23T02:36:29;6.30;78.60
72206;DHT22;60111;48.286;7.812;2024-02-23T02:39:01;6.30;78.60
72206;DHT22;60111;48.286;7.812;2024-02-23T02:41:34;6.30;78.50
72206;DHT22;60111;48.286;7.812;2024-02-23T02:44:06;6.40;78.10
72206;DHT22;60111;48.286;7.812;2024-02-23T02:46:44;6.40;77.60
72206;DHT22;60111;48.286;7.812;2024-02-23T02:49:17;6.30;77.50
72206;DHT22;60111;48.286;7.812;2024-02-23T02:51:50;6.30;76.80
72206;DHT22;60111;48.286;7.812;2024-02-23T02:54:23;6.30;76.80
72206;DHT22;60111;48.286;7.812;2024-02-23T02:56:55;6.30;76.50
72206;DHT22;60111;48.286;7.812;2024-02-23T02:59:28;6.20;76.70
72206;DHT22;60111;48.286;7.812;2024-02-23T03:02:00;6.00;77.20
72206;DHT22;60111;48.286;7.812;2024-02-23T03:04:33;6.00;76.80
72206;DHT22;60111;48.286;7.812;2024-02-23T03:07:06;6.00;76.50
72206;DHT22;60111;48.286;7.812;2024-02-23T03:09:38;6.00;76.60
72206;DHT22;60111;48.286;7.812;2024-02-23T03:12:11;5.90;76.90
72206;DHT22;60111;48.286;7.812;2024-02-23T03:14:44;5.90;77.00
72206;DHT22;60111;48.286;7.812;2024-02-23T03:17:16;5.90;77.00
72206;DHT22;60111;48.286;7.812;2024-02-23T03:19:49;5.90;77.20
72206;DHT22;60111;48.286;7.812;2024-02-23T03:22:25;5.80;77.50
72206;DHT22;60111;48.286;7.812;2024-02-23T03:24:58;5.70;77.90
72206;DHT22;60111;48.286;7.812;2024-02-23T03:27:31;5.70;78.00
72206;DHT22;60111;48.286;7.812;2024-02-23T03:30:04;5.60;78.40
72206;DHT22;60111;48.286;7.812;2024-02-23T03:32:38;5.60;78.40
72206;DHT22;60111;48.286;7.812;2024-02-23T03:35:11;5.60;78.30
72206;DHT22;60111;48.286;7.812;2024-02-23T03:37:44;5.70;78.10
72206;DHT22;60111;48.286;7.812;2024-02-23T03:40:16;5.70;78.30
72206;DHT22;60111;48.286;7.812;2024-02-23T03:42:50;5.70;78.60
72206;DHT22;60111;48.286;7.812;2024-02-23T03:45:23;5.70;78.70
72206;DHT22;60111;48.286;7.812;2024-02-23T03:47:56;5.80;78.70
72206;DHT22;60111;48.286;7.812;2024-02-23T03:50:28;5.80;78.80
72206;DHT22;60111;48.286;7.812;2024-02-23T03:53:01;5.80;78.90
72206;DHT22;60111;48.286;7.812;2024-02-23T03:55:34;5.80;78.90
72206;DHT22;60111;48.286;7.812;2024-02-23T03:58:07;5.80;79.00
72206;DHT22;60111;48.286;7.812;2024-02-23T04:00:39;5.80;78.90
72206;DHT22;60111;48.286;7.812;2024-02-23T04:03:12;5.70;79.50
72206;DHT22;60111;48.286;7.812;2024-02-23T04:05:44;5.70;79.30
72206;DHT22;60111;48.286;7.812;2024-02-23T04:08:17;5.70;78.80
72206;DHT22;60111;48.286;7.812;2024-02-23T04:10:49;5.70;78.40
72206;DHT22;60111;48.286;7.812;2024-02-23T04:13:22;5.70;78.50
72206;DHT22;60111;48.286;7.812;2024-02-23T04:15:56;5.60;78.20
72206;DHT22;60111;48.286;7.812;2024-02-23T04:18:28;5.60;78.40
72206;DHT22;60111;48.286;7.812;2024-02-23T04:21:01;5.60;78.20
72206;DHT22;60111;48.286;7.812;2024-02-23T04:23:34;5.60;78.10
72206;DHT22;60111;48.286;7.812;2024-02-23T04:26:06;5.60;78.10
72206;DHT22;60111;48.286;7.812;2024-02-23T04:28:41;5.50;78.00
72206;DHT22;60111;48.286;7.812;2024-02-23T04:31:14;5.60;77.90
72206;DHT22;60111;48.286;7.812;2024-02-23T04:33:46;5.60;77.90
72206;DHT22;60111;48.286;7.812;2024-02-23T04:36:22;5.60;78.30
72206;DHT22;60111;48.286;7.812;2024-02-23T04:38:54;5.60;78.20
72206;DHT22;60111;48.286;7.812;2024-02-23T04:41:27;5.60;78.30
72206;DHT22;60111;48.286;7.812;2024-02-23T04:44:01;5.60;78.40
72206;DHT22;60111;48.286;7.812;2024-02-23T04:46:35;5.60;78.40
72206;DHT22;60111;48.286;7.812;2024-02-23T04:49:07;5.50;78.50
72206;DHT22;60111;48.286;7.812;2024-02-23T04:51:40;5.50;78.60
72206;DHT22;60111;48.286;7.812;2024-02-23T04:54:12;5.50;78.50
72206;DHT22;60111;48.286;7.812;2024-02-23T04:56:46;5.50;78.30
72206;DHT22;60111;48.286;7.812;2024-02-23T04:59:19;5.50;78.00
72206;DHT22;60111;48.286;7.812;2024-02-23T05:01:51;5.50;77.80
72206;DHT22;60111;48.286;7.812;2024-02-23T05:04:24;5.50;77.70
72206;DHT22;60111;48.286;7.812;2024-02-23T05:06:58;5.40;77.80
72206;DHT22;60111;48.286;7.812;2024-02-23T05:09:30;5.40;78.10
72206;DHT22;60111;48.286;7.812;2024-02-23T05:12:04;5.40;78.20
72206;DHT22;60111;48.286;7.812;2024-02-23T05:14:37;5.40;77.90
72206;DHT22;60111;48.286;7.812;2024-02-23T05:17:09;5.50;77.30
72206;DHT22;60111;48.286;7.812;2024-02-23T05:19:42;5.40;77.10
72206;DHT22;60111;48.286;7.812;2024-02-23T05:22:15;5.40;77.10
72206;DHT22;60111;48.286;7.812;2024-02-23T05:24:48;5.50;76.60
72206;DHT22;60111;48.286;7.812;2024-02-23T05:27:20;5.40;76.60
72206;DHT22;60111;48.286;7.812;2024-02-23T05:29:53;5.50;75.70
72206;DHT22;60111;48.286;7.812;2024-02-23T05:32:26;5.40;75.70
72206;DHT22;60111;48.286;7.812;2024-02-23T05:34:58;5.40;75.40
72206;DHT22;60111;48.286;7.812;2024-02-23T05:37:31;5.40;75.30
72206;DHT22;60111;48.286;7.812;2024-02-23T05:40:04;5.40;74.70
72206;DHT22;60111;48.286;7.812;2024-02-23T05:42:43;5.30;75.10
72206;DHT22;60111;48.286;7.812;2024-02-23T05:45:16;5.40;75.00
72206;DHT22;60111;48.286;7.812;2024-02-23T05:47:49;5.30;74.70
72206;DHT22;60111;48.286;7.812;2024-02-23T05:50:21;5.30;74.80
72206;DHT22;60111;48.286;7.812;2024-02-23T05:52:54;5.30;74.90
72206;DHT22;60111;48.286;7.812;2024-02-23T05:55:26;5.30;74.70
72206;DHT22;60111;48.286;7.812;2024-02-23T05:57:59;5.30;74.90
72206;DHT22;60111;48.286;7.812;2024-02-23T06:00:32;5.30;74.30
72206;DHT22;60111;48.286;7.812;2024-02-23T06:03:04;5.30;74.30
72206;DHT22;60111;48.286;7.812;2024-02-23T06:05:37;5.30;74.30
72206;DHT22;60111;48.286;7.812;2024-02-23T06:08:09;5.20;74.50
72206;DHT22;60111;48.286;7.812;2024-02-23T06:10:42;5.20;74.30
72206;DHT22;60111;48.286;7.812;2024-02-23T06:13:15;5.20;74.50
72206;DHT22;60111;48.286;7.812;2024-02-23T06:15:47;5.20;74.50
72206;DHT22;60111;48.286;7.812;2024-02-23T06:18:20;5.20;74.10
72206;DHT22;60111;48.286;7.812;2024-02-23T06:20:53;5.20;74.20
72206;DHT22;60111;48.286;7.812;2024-02-23T06:23:26;5.20;74.20
72206;DHT22;60111;48.286;7.812;2024-02-23T06:26:00;5.20;74.60
72206;DHT22;60111;48.286;7.812;2024-02-23T06:28:33;5.20;73.90
72206;DHT22;60111;48.286;7.812;2024-02-23T06:31:06;5.20;73.90
72206;DHT22;60111;48.286;7.812;2024-02-23T06:33:39;5.20;73.80
72206;DHT22;60111;48.286;7.812;2024-02-23T06:36:12;5.10;73.90
72206;DHT22;60111;48.286;7.812;2024-02-23T06:38:45;5.10;73.60
72206;DHT22;60111;48.286;7.812;2024-02-23T06:41:18;5.10;73.90
72206;DHT22;60111;48.286;7.812;2024-02-23T06:43:50;5.10;73.90
72206;DHT22;60111;48.286;7.812;2024-02-23T06:46:24;5.10;73.70
72206;DHT22;60111;48.286;7.812;2024-02-23T06:48:57;5.10;73.90
72206;DHT22;60111;48.286;7.812;2024-02-23T06:51:31;5.10;73.80
72206;DHT22;60111;48.286;7.812;2024-02-23T06:54:03;5.10;73.80
72206;DHT22;60111;48.286;7.812;2024-02-23T06:56:36;5.10;73.80
72206;DHT22;60111;48.286;7.812;2024-02-23T06:59:08;5.10;73.50
72206;DHT22;60111;48.286;7.812;2024-02-23T07:01:51;5.10;74.10
72206;DHT22;60111;48.286;7.812;2024-02-23T07:04:24;5.10;74.00
72206;DHT22;60111;48.286;7.812;2024-02-23T07:06:57;5.10;74.20
72206;DHT22;60111;48.286;7.812;2024-02-23T07:09:30;5.10;74.50
72206;DHT22;60111;48.286;7.812;2024-02-23T07:12:02;5.10;74.60
72206;DHT22;60111;48.286;7.812;2024-02-23T07:14:35;5.20;74.10
72206;DHT22;60111;48.286;7.812;2024-02-23T07:17:08;5.30;73.90
72206;DHT22;60111;48.286;7.812;2024-02-23T07:19:41;5.30;73.60
72206;DHT22;60111;48.286;7.812;2024-02-23T07:22:14;5.30;74.10
72206;DHT22;60111;48.286;7.812;2024-02-23T07:24:47;5.40;73.40
72206;DHT22;60111;48.286;7.812;2024-02-23T07:27:21;5.40;73.40
72206;DHT22;60111;48.286;7.812;2024-02-23T07:29:53;5.40;73.60
72206;DHT22;60111;48.286;7.812;2024-02-23T07:32:26;5.60;72.70
72206;DHT22;60111;48.286;7.812;2024-02-23T07:35:00;5.60;72.80
72206;DHT22;60111;48.286;7.812;2024-02-23T07:37:33;5.70;72.10
72206;DHT22;60111;48.286;7.812;2024-02-23T07:40:06;5.70;71.90
72206;DHT22;60111;48.286;7.812;2024-02-23T07:42:39;5.80;72.10
72206;DHT22;60111;48.286;7.812;2024-02-23T07:45:12;5.80;71.70
72206;DHT22;60111;48.286;7.812;2024-02-23T07:47:44;5.90;71.60
72206;DHT22;60111;48.286;7.812;2024-02-23T07:50:17;6.00;71.60
72206;DHT22;60111;48.286;7.812;2024-02-23T07:52:50;5.90;71.50
72206;DHT22;60111;48.286;7.812;2024-02-23T07:55:23;5.90;71.70
72206;DHT22;60111;48.286;7.812;2024-02-23T07:57:55;5.90;71.20
72206;DHT22;60111;48.286;7.812;2024-02-23T08:00:30;5.90;71.20
72206;DHT22;60111;48.286;7.812;2024-02-23T08:03:02;5.90;70.30
72206;DHT22;60111;48.286;7.812;2024-02-23T08:05:35;5.90;70.50
72206;DHT22;60111;48.286;7.812;2024-02-23T08:08:07;6.00;70.40
72206;DHT22;60111;48.286;7.812;2024-02-23T08:10:40;6.00;70.60
72206;DHT22;60111;48.286;7.812;2024-02-23T08:13:14;6.10;69.80
72206;DHT22;60111;48.286;7.812;2024-02-23T08:15:46;6.10;70.00
72206;DHT22;60111;48.286;7.812;2024-02-23T08:18:19;6.20;69.90
72206;DHT22;60111;48.286;7.812;2024-02-23T08:20:53;6.20;69.20
72206;DHT22;60111;48.286;7.812;2024-02-23T08:23:27;6.20;69.50
72206;DHT22;60111;48.286;7.812;2024-02-23T08:25:59;6.10;69.20
72206;DHT22;60111;48.286;7.812;2024-02-23T08:28:32;6.10;69.30
72206;DHT22;60111;48.286;7.812;2024-02-23T08:31:04;6.20;69.50
72206;DHT22;60111;48.286;7.812;2024-02-23T08:33:37;6.40;68.70
72206;DHT22;60111;48.286;7.812;2024-02-23T08:36:10;6.50;68.60
72206;DHT22;60111;48.286;7.812;2024-02-23T08:38:43;6.70;67.20
72206;DHT22;60111;48.286;7.812;2024-02-23T08:41:16;6.90;67.00
72206;DHT22;60111;48.286;7.812;2024-02-23T08:43:48;7.20;66.30
72206;DHT22;60111;48.286;7.812;2024-02-23T08:46:21;7.40;65.60
72206;DHT22;60111;48.286;7.812;2024-02-23T08:48:54;7.50;64.40
72206;DHT22;60111;48.286;7.812;2024-02-23T08:51:27;7.50;64.30
72206;DHT22;60111;48.286;7.812;2024-02-23T08:54:00;7.40;63.80
72206;DHT22;60111;48.286;7.812;2024-02-23T08:56:37;7.30;64.10
72206;DHT22;60111;48.286;7.812;2024-02-23T08:59:12;7.40;64.70
72206;DHT22;60111;48.286;7.812;2024-02-23T09:01:44;7.30;64.20
72206;DHT22;60111;48.286;7.812;2024-02-23T09:04:18;7.30;64.10
72206;DHT22;60111;48.286;7.812;2024-02-23T09:06:51;7.30;64.60
72206;DHT22;60111;48.286;7.812;2024-02-23T09:09:24;7.30;64.20
72206;DHT22;60111;48.286;7.812;2024-02-23T09:11:57;7.20;64.50
72206;DHT22;60111;48.286;7.812;2024-02-23T09:14:30;7.30;64.70
72206;DHT22;60111;48.286;7.812;2024-02-23T09:17:03;7.50;64.30
72206;DHT22;60111;48.286;7.812;2024-02-23T09:19:36;7.70;63.00
72206;DHT22;60111;48.286;7.812;2024-02-23T09:22:09;7.80;63.00
72206;DHT22;60111;48.286;7.812;2024-02-23T09:24:42;8.00;63.20
72206;DHT22;60111;48.286;7.812;2024-02-23T09:27:14;8.10;61.70
72206;DHT22;60111;48.286;7.812;2024-02-23T09:29:47;8.30;61.70
72206;DHT22;60111;48.286;7.812;2024-02-23T09:32:20;8.40;61.30
72206;DHT22;60111;48.286;7.812;2024-02-23T09:34:53;8.40;60.40
72206;DHT22;60111;48.286;7.812;2024-02-23T09:37:25;8.40;59.60
72206;DHT22;60111;48.286;7.812;2024-02-23T09:39:58;8.50;60.20
72206;DHT22;60111;48.286;7.812;2024-02-23T09:42:31;8.60;60.10
72206;DHT22;60111;48.286;7.812;2024-02-23T09:45:05;8.70;59.50
72206;DHT22;60111;48.286;7.812;2024-02-23T09:47:40;8.90;58.70
72206;DHT22;60111;48.286;7.812;2024-02-23T09:50:13;9.00;58.00
72206;DHT22;60111;48.286;7.812;2024-02-23T09:52:47;9.00;58.30
72206;DHT22;60111;48.286;7.812;2024-02-23T09:55:22;9.10;58.50
72206;DHT22;60111;48.286;7.812;2024-02-23T09:57:57;9.00;57.80
72206;DHT22;60111;48.286;7.812;2024-02-23T10:00:31;8.90;59.10
72206;DHT22;60111;48.286;7.812;2024-02-23T10:03:06;9.00;58.60
72206;DHT22;60111;48.286;7.812;2024-02-23T10:05:39;9.10;57.70
72206;DHT22;60111;48.286;7.812;2024-02-23T10:08:11;9.10;57.20
72206;DHT22;60111;48.286;7.812;2024-02-23T10:10:46;9.20;57.90
72206;DHT22;60111;48.286;7.812;2024-02-23T10:13:23;9.40;57.10
72206;DHT22;60111;48.286;7.812;2024-02-23T10:15:56;9.50;56.70
72206;DHT22;60111;48.286;7.812;2024-02-23T10:18:29;9.60;56.20
72206;DHT22;60111;48.286;7.812;2024-02-23T10:21:02;9.60;57.00
72206;DHT22;60111;48.286;7.812;2024-02-23T10:23:35;9.70;55.80
72206;DHT22;60111;48.286;7.812;2024-02-23T10:26:08;9.70;56.00
72206;DHT22;60111;48.286;7.812;2024-02-23T10:28:40;9.70;55.40
72206;DHT22;60111;48.286;7.812;2024-02-23T10:31:13;9.60;55.80
72206;DHT22;60111;48.286;7.812;2024-02-23T10:33:46;9.70;54.80
72206;DHT22;60111;48.286;7.812;2024-02-23T10:36:22;9.80;55.00
72206;DHT22;60111;48.286;7.812;2024-02-23T10:38:56;10.10;55.10
72206;DHT22;60111;48.286;7.812;2024-02-23T10:41:33;10.20;55.20
72206;DHT22;60111;48.286;7.812;2024-02-23T10:44:07;10.30;53.10
72206;DHT22;60111;48.286;7.812;2024-02-23T10:46:41;10.30;54.80
72206;DHT22;60111;48.286;7.812;2024-02-23T10:49:15;10.60;54.00
72206;DHT22;60111;48.286;7.812;2024-02-23T10:51:48;10.70;52.60
72206;DHT22;60111;48.286;7.812;2024-02-23T10:54:21;10.80;52.00
72206;DHT22;60111;48.286;7.812;2024-02-23T10:56:54;10.70;51.70
72206;DHT22;60111;48.286;7.812;2024-02-23T10:59:28;10.70;52.70
72206;DHT22;60111;48.286;7.812;2024-02-23T11:02:01;10.70;52.40
72206;DHT22;60111;48.286;7.812;2024-02-23T11:04:37;10.70;51.70
72206;DHT22;60111;48.286;7.812;2024-02-23T11:07:14;10.80;51.80
72206;DHT22;60111;48.286;7.812;2024-02-23T11:09:54;10.80;52.10
72206;DHT22;60111;48.286;7.812;2024-02-23T11:12:31;10.70;52.40
72206;DHT22;60111;48.286;7.812;2024-02-23T11:15:04;10.80;52.40
72206;DHT22;60111;48.286;7.812;2024-02-23T11:17:37;10.90;52.20
72206;DHT22;60111;48.286;7.812;2024-02-23T11:20:14;10.90;52.70
72206;DHT22;60111;48.286;7.812;2024-02-23T11:22:47;10.70;51.30
72206;DHT22;60111;48.286;7.812;2024-02-23T11:25:26;10.40;53.20
72206;DHT22;60111;48.286;7.812;2024-02-23T11:27:56;10.30;53.10
72206;DHT22;60111;48.286;7.812;2024-02-23T11:30:31;10.10;54.40
72206;DHT22;60111;48.286;7.812;2024-02-23T11:33:07;10.00;53.40
72206;DHT22;60111;48.286;7.812;2024-02-23T11:35:46;9.90;53.30
72206;DHT22;60111;48.286;7.812;2024-02-23T11:38:16;9.80;54.50
72206;DHT22;60111;48.286;7.812;2024-02-23T11:40:48;9.70;54.00
72206;DHT22;60111;48.286;7.812;2024-02-23T11:43:23;9.60;54.80
72206;DHT22;60111;48.286;7.812;2024-02-23T11:45:56;9.60;54.00
72206;DHT22;60111;48.286;7.812;2024-02-23T11:48:29;9.60;54.60
72206;DHT22;60111;48.286;7.812;2024-02-23T11:51:01;9.60;54.90
72206;DHT22;60111;48.286;7.812;2024-02-23T11:53:36;9.60;54.50
72206;DHT22;60111;48.286;7.812;2024-02-23T11:56:12;9.60;53.90
72206;DHT22;60111;48.286;7.812;2024-02-23T11:58:45;9.60;54.30
72206;DHT22;60111;48.286;7.812;2024-02-23T12:01:19;9.60;54.50
72206;DHT22;60111;48.286;7.812;2024-02-23T12:03:51;9.80;54.90
72206;DHT22;60111;48.286;7.812;2024-02-23T12:06:25;9.90;55.50
72206;DHT22;60111;48.286;7.812;2024-02-23T12:09:00;10.00;55.40
72206;DHT22;60111;48.286;7.812;2024-02-23T12:11:33;10.10;56.10
72206;DHT22;60111;48.286;7.812;2024-02-23T12:14:06;10.10;54.80
72206;DHT22;60111;48.286;7.812;2024-02-23T12:16:40;10.10;55.10
72206;DHT22;60111;48.286;7.812;2024-02-23T12:19:13;9.80;54.50
72206;DHT22;60111;48.286;7.812;2024-02-23T12:21:47;9.60;55.90
72206;DHT22;60111;48.286;7.812;2024-02-23T12:24:19;9.50;57.60
72206;DHT22;60111;48.286;7.812;2024-02-23T12:26:54;9.40;58.60
72206;DHT22;60111;48.286;7.812;2024-02-23T12:29:28;9.20;61.00
72206;DHT22;60111;48.286;7.812;2024-02-23T12:32:05;8.90;60.60
72206;DHT22;60111;48.286;7.812;2024-02-23T12:34:38;8.80;62.40
72206;DHT22;60111;48.286;7.812;2024-02-23T12:37:10;8.80;61.60
72206;DHT22;60111;48.286;7.812;2024-02-23T12:39:43;8.80;61.30
72206;DHT22;60111;48.286;7.812;2024-02-23T12:42:17;8.80;62.30
72206;DHT22;60111;48.286;7.812;2024-02-23T12:44:51;8.80;61.90
72206;DHT22;60111;48.286;7.812;2024-02-23T12:47:23;8.90;60.40
72206;DHT22;60111;48.286;7.812;2024-02-23T12:49:56;9.00;59.10
72206;DHT22;60111;48.286;7.812;2024-02-23T12:52:29;9.00;57.40
72206;DHT22;60111;48.286;7.812;2024-02-23T12:55:01;9.10;56.40
72206;DHT22;60111;48.286;7.812;2024-02-23T12:57:34;9.10;54.90
72206;DHT22;60111;48.286;7.812;2024-02-23T13:00:07;9.20;55.40
72206;DHT22;60111;48.286;7.812;2024-02-23T13:02:40;9.30;56.40
72206;DHT22;60111;48.286;7.812;2024-02-23T13:05:13;9.30;54.50
72206;DHT22;60111;48.286;7.812;2024-02-23T13:07:46;9.40;54.90
72206;DHT22;60111;48.286;7.812;2024-02-23T13:10:19;9.30;53.70
72206;DHT22;60111;48.286;7.812;2024-02-23T13:12:51;9.20;54.90
72206;DHT22;60111;48.286;7.812;2024-02-23T13:15:24;9.20;54.80
72206;DHT22;60111;48.286;7.812;2024-02-23T13:17:57;9.10;55.30
72206;DHT22;60111;48.286;7.812;2024-02-23T13:20:30;9.20;55.10
72206;DHT22;60111;48.286;7.812;2024-02-23T13:23:03;9.20;54.80
72206;DHT22;60111;48.286;7.812;2024-02-23T13:25:36;9.20;55.00
72206;DHT22;60111;48.286;7.812;2024-02-23T13:28:09;9.30;53.30
72206;DHT22;60111;48.286;7.812;2024-02-23T13:30:42;9.50;53.60
72206;DHT22;60111;48.286;7.812;2024-02-23T13:33:15;9.80;53.40
72206;DHT22;60111;48.286;7.812;2024-02-23T13:35:47;10.00;52.00
72206;DHT22;60111;48.286;7.812;2024-02-23T13:38:20;10.20;52.40
72206;DHT22;60111;48.286;7.812;2024-02-23T13:40:53;10.50;52.40
72206;DHT22;60111;48.286;7.812;2024-02-23T13:43:25;10.80;51.30
72206;DHT22;60111;48.286;7.812;2024-02-23T13:45:59;11.00;49.80
72206;DHT22;60111;48.286;7.812;2024-02-23T13:48:32;11.10;49.70
72206;DHT22;60111;48.286;7.812;2024-02-23T13:51:05;11.30;51.00
72206;DHT22;60111;48.286;7.812;2024-02-23T13:53:37;11.50;49.30
72206;DHT22;60111;48.286;7.812;2024-02-23T13:56:11;11.70;48.20
72206;DHT22;60111;48.286;7.812;2024-02-23T13:58:44;11.90;46.90
72206;DHT22;60111;48.286;7.812;2024-02-23T14:01:18;11.80;47.80
72206;DHT22;60111;48.286;7.812;2024-02-23T14:03:50;11.90;47.10
72206;DHT22;60111;48.286;7.812;2024-02-23T14:06:23;11.90;46.00
72206;DHT22;60111;48.286;7.812;2024-02-23T14:08:55;11.60;47.50
72206;DHT22;60111;48.286;7.812;2024-02-23T14:11:29;11.30;47.20
72206;DHT22;60111;48.286;7.812;2024-02-23T14:14:02;11.20;48.80
72206;DHT22;60111;48.286;7.812;2024-02-23T14:16:35;11.40;47.50
72206;DHT22;60111;48.286;7.812;2024-02-23T14:19:07;11.60;45.40
72206;DHT22;60111;48.286;7.812;2024-02-23T14:21:40;11.50;46.60
72206;DHT22;60111;48.286;7.812;2024-02-23T14:24:13;11.40;45.60
72206;DHT22;60111;48.286;7.812;2024-02-23T14:26:46;11.20;44.50
72206;DHT22;60111;48.286;7.812;2024-02-23T14:29:18;11.40;45.60
72206;DHT22;60111;48.286;7.812;2024-02-23T14:31:51;11.40;44.90
72206;DHT22;60111;48.286;7.812;2024-02-23T14:34:23;11.60;45.40
72206;DHT22;60111;48.286;7.812;2024-02-23T14:36:56;11.70;44.70
72206;DHT22;60111;48.286;7.812;2024-02-23T14:39:29;11.90;45.30
72206;DHT22;60111;48.286;7.812;2024-02-23T14:42:01;12.00;45.60
72206;DHT22;60111;48.286;7.812;2024-02-23T14:44:35;12.10;47.00
72206;DHT22;60111;48.286;7.812;2024-02-23T14:47:08;12.10;44.60
72206;DHT22;60111;48.286;7.812;2024-02-23T14:49:40;12.00;45.60
72206;DHT22;60111;48.286;7.812;2024-02-23T14:52:15;11.90;45.20
72206;DHT22;60111;48.286;7.812;2024-02-23T14:54:47;11.90;45.60
72206;DHT22;60111;48.286;7.812;2024-02-23T14:57:20;11.90;45.50
72206;DHT22;60111;48.286;7.812;2024-02-23T14:59:53;11.90;46.60
72206;DHT22;60111;48.286;7.812;2024-02-23T15:02:25;12.00;45.80
72206;DHT22;60111;48.286;7.812;2024-02-23T15:04:59;12.00;46.70
72206;DHT22;60111;48.286;7.812;2024-02-23T15:07:32;12.00;46.10
72206;DHT22;60111;48.286;7.812;2024-02-23T15:10:05;11.90;45.70
72206;DHT22;60111;48.286;7.812;2024-02-23T15:12:39;11.80;47.10
72206;DHT22;60111;48.286;7.812;2024-02-23T15:15:12;11.60;46.90
72206;DHT22;60111;48.286;7.812;2024-02-23T15:17:45;11.60;47.50
72206;DHT22;60111;48.286;7.812;2024-02-23T15:20:20;11.50;48.70
72206;DHT22;60111;48.286;7.812;2024-02-23T15:22:53;11.60;48.80
72206;DHT22;60111;48.286;7.812;2024-02-23T15:25:25;11.70;48.20
72206;DHT22;60111;48.286;7.812;2024-02-23T15:27:59;11.70;48.20
72206;DHT22;60111;48.286;7.812;2024-02-23T15:30:31;11.70;48.00
72206;DHT22;60111;48.286;7.812;2024-02-23T15:33:05;11.60;48.10
72206;DHT22;60111;48.286;7.812;2024-02-23T15:35:38;11.60;48.60
72206;DHT22;60111;48.286;7.812;2024-02-23T15:38:10;11.60;48.80
72206;DHT22;60111;48.286;7.812;2024-02-23T15:40:43;11.60;47.70
72206;DHT22;60111;48.286;7.812;2024-02-23T15:43:16;11.40;48.40
72206;DHT22;60111;48.286;7.812;2024-02-23T15:45:48;11.20;49.30
72206;DHT22;60111;48.286;7.812;2024-02-23T15:48:21;11.20;49.40
72206;DHT22;60111;48.286;7.812;2024-02-23T15:50:55;11.00;49.30
72206;DHT22;60111;48.286;7.812;2024-02-23T15:53:28;10.90;50.60
72206;DHT22;60111;48.286;7.812;2024-02-23T15:56:01;11.00;50.30
72206;DHT22;60111;48.286;7.812;2024-02-23T15:58:34;11.10;48.60
72206;DHT22;60111;48.286;7.812;2024-02-23T16:01:06;11.20;46.80
72206;DHT22;60111;48.286;7.812;2024-02-23T16:03:39;11.10;47.70
72206;DHT22;60111;48.286;7.812;2024-02-23T16:06:11;11.10;48.70
72206;DHT22;60111;48.286;7.812;2024-02-23T16:08:46;11.10;48.30
72206;DHT22;60111;48.286;7.812;2024-02-23T16:11:19;10.80;48.90
72206;DHT22;60111;48.286;7.812;2024-02-23T16:13:52;10.70;49.80
72206;DHT22;60111;48.286;7.812;2024-02-23T16:16:25;10.60;50.10
72206;DHT22;60111;48.286;7.812;2024-02-23T16:18:57;10.50;50.30